sensor_id;sensor_type;location;lat;lon;timestamp;pressure;altitude;pressure_sealevel;temperature;humidity
51123;BME280;37162;41.724;13.346;2023-03-26T00:00:43;96666.53;;;18.01;65.16
51123;BME280;37162;41.724;13.346;2023-03-26T00:03:13;96669.22;;;18.01;65.38
51123;BME280;37162;41.724;13.346;2023-03-26T00:05:41;96665.72;;;18.00;65.65
51123;BME280;37162;41.724;13.346;2023-03-26T00:08:07;96659.19;;;17.96;65.54
51123;BME280;37162;41.724;13.346;2023-03-26T00:10:37;96669.47;;;17.99;65.44
51123;BME280;37162;41.724;13.346;2023-03-26T00:13:06;96668.66;;;17.99;65.51
51123;BME280;37162;41.724;13.346;2023-03-26T00:15:33;96657.09;;;17.98;64.94
51123;BME280;37162;41.724;13.346;2023-03-26T00:18:00;96665.97;;;17.99;65.38
51123;BME280;37162;41.724;13.346;2023-03-26T00:20:26;96679.41;;;17.99;65.36
51123;BME280;37162;41.724;13.346;2023-03-26T00:22:53;96679.41;;;17.99;65.43
51123;BME280;37162;41.724;13.346;2023-03-26T00:25:20;96678.81;;;17.97;65.79
51123;BME280;37162;41.724;13.346;2023-03-26T00:27:45;96686.41;;;18.00;66.04
51123;BME280;37162;41.724;13.346;2023-03-26T00:30:11;96678.34;;;18.00;66.13
51123;BME280;37162;41.724;13.346;2023-03-26T00:32:37;96667.59;;;18.00;65.96
51123;BME280;37162;41.724;13.346;2023-03-26T00:35:03;96672.97;;;18.00;65.39
51123;BME280;37162;41.724;13.346;2023-03-26T00:37:29;96683.72;;;18.00;65.59
51123;BME280;37162;41.724;13.346;2023-03-26T00:39:56;96668.56;;;17.94;65.18
51123;BME280;37162;41.724;13.346;2023-03-26T00:42:24;96656.19;;;17.93;65.17
51123;BME280;37162;41.724;13.346;2023-03-26T00:44:50;96645.66;;;17.91;65.13
51123;BME280;37162;41.724;13.346;2023-03-26T00:47:25;96648.22;;;17.98;64.97
51123;BME280;37162;41.724;13.346;2023-03-26T00:49:50;96656.28;;;17.98;64.98
51123;BME280;37162;41.724;13.346;2023-03-26T00:52:16;96653.81;;;17.96;64.89
51123;BME280;37162;41.724;13.346;2023-03-26T00:54:46;96651.94;;;17.97;65.07
51123;BME280;37162;41.724;13.346;2023-03-26T00:57:13;96649.25;;;17.97;64.92
51123;BME280;37162;41.724;13.346;2023-03-26T00:59:39;96646.56;;;17.97;64.93
51123;BME280;37162;41.724;13.346;2023-03-26T01:02:06;96643.88;;;17.97;64.72
51123;BME280;37162;41.724;13.346;2023-03-26T01:04:35;96638.75;;;17.95;64.86
51123;BME280;37162;41.724;13.346;2023-03-26T01:07:09;96637.69;;;17.96;64.65
51123;BME280;37162;41.724;13.346;2023-03-26T01:09:39;96643.88;;;17.97;64.76
51123;BME280;37162;41.724;13.346;2023-03-26T01:12:10;96650.91;;;17.98;65.27
51123;BME280;37162;41.724;13.346;2023-03-26T01:14:38;96644.47;;;17.99;65.51
51123;BME280;37162;41.724;13.346;2023-03-26T01:17:05;96641.78;;;17.99;65.78
51123;BME280;37162;41.724;13.346;2023-03-26T01:19:47;96641.78;;;17.99;65.83
51123;BME280;37162;41.724;13.346;2023-03-26T01:22:21;96640.16;;;17.98;65.92
51123;BME280;37162;41.724;13.346;2023-03-26T01:24:47;96630.22;;;17.98;65.93
51123;BME280;37162;41.724;13.346;2023-03-26T01:35:48;96605.69;;;17.95;65.39
51123;BME280;37162;41.724;13.346;2023-03-26T01:38:22;96595.75;;;17.95;65.33
51123;BME280;37162;41.724;13.346;2023-03-26T01:40:58;96606.50;;;17.95;64.95
51123;BME280;37162;41.724;13.346;2023-03-26T01:43:34;96600.78;;;17.92;64.84
51123;BME280;37162;41.724;13.346;2023-03-26T01:46:04;96598.09;;;17.92;65.04
51123;BME280;37162;41.724;13.346;2023-03-26T01:48:34;96592.25;;;17.95;64.87
51123;BME280;37162;41.724;13.346;2023-03-26T01:51:01;96594.13;;;17.94;64.83
51123;BME280;37162;41.724;13.346;2023-03-26T01:53:27;96587.34;;;17.92;64.58
51123;BME280;37162;41.724;13.346;2023-03-26T01:56:08;96591.69;;;17.93;64.79
51123;BME280;37162;41.724;13.346;2023-03-26T01:58:40;96586.31;;;17.93;64.75
51123;BME280;37162;41.724;13.346;2023-03-26T02:03:51;96578.47;;;17.91;64.74
51123;BME280;37162;41.724;13.346;2023-03-26T02:06:42;96582.22;;;17.90;64.70
51123;BME280;37162;41.724;13.346;2023-03-26T02:09:13;96572.19;;;17.85;64.80
51123;BME280;37162;41.724;13.346;2023-03-26T02:11:40;96566.50;;;17.82;64.85
51123;BME280;37162;41.724;13.346;2023-03-26T02:14:07;96584.91;;;17.90;64.92
51123;BME280;37162;41.724;13.346;2023-03-26T02:16:33;96580.59;;;17.89;64.53
51123;BME280;37162;41.724;13.346;2023-03-26T02:18:58;96589.22;;;17.91;64.80
51123;BME280;37162;41.724;13.346;2023-03-26T02:21:25;96565.94;;;17.80;64.88
51123;BME280;37162;41.724;13.346;2023-03-26T02:23:54;96578.72;;;17.90;64.90
51123;BME280;37162;41.724;13.346;2023-03-26T02:26:28;96585.97;;;17.89;64.59
51123;BME280;37162;41.724;13.346;2023-03-26T02:28:53;96568.94;;;17.83;64.57
51123;BME280;37162;41.724;13.346;2023-03-26T02:31:19;96561.38;;;17.80;64.50
51123;BME280;37162;41.724;13.346;2023-03-26T02:33:46;96568.69;;;17.85;64.33
51123;BME280;37162;41.724;13.346;2023-03-26T02:36:14;96563.56;;;17.83;64.63
51123;BME280;37162;41.724;13.346;2023-03-26T02:38:40;96564.69;;;17.87;64.87
51123;BME280;37162;41.724;13.346;2023-03-26T02:41:06;96554.69;;;17.83;65.33
51123;BME280;37162;41.724;13.346;2023-03-26T02:43:31;96562.84;;;17.88;65.38
51123;BME280;37162;41.724;13.346;2023-03-26T02:45:57;96544.91;;;17.77;65.36
51123;BME280;37162;41.724;13.346;2023-03-26T02:48:22;96547.13;;;17.80;65.29
51123;BME280;37162;41.724;13.346;2023-03-26T02:50:48;96548.00;;;17.85;65.10
51123;BME280;37162;41.724;13.346;2023-03-26T02:53:21;96548.81;;;17.86;64.98
51123;BME280;37162;41.724;13.346;2023-03-26T02:55:48;96547.47;;;17.83;64.92
51123;BME280;37162;41.724;13.346;2023-03-26T02:58:14;96548.00;;;17.85;64.94
51123;BME280;37162;41.724;13.346;2023-03-26T03:00:43;96553.63;;;17.84;64.97
51123;BME280;37162;41.724;13.346;2023-03-26T03:03:08;96550.94;;;17.84;65.05
51123;BME280;37162;41.724;13.346;2023-03-26T03:05:34;96550.69;;;17.85;64.96
51123;BME280;37162;41.724;13.346;2023-03-26T03:08:02;96550.94;;;17.84;65.17
51123;BME280;37162;41.724;13.346;2023-03-26T03:10:28;96547.94;;;17.80;65.53
51123;BME280;37162;41.724;13.346;2023-03-26T03:12:57;96563.88;;;17.87;65.72
51123;BME280;37162;41.724;13.346;2023-03-26T03:15:24;96553.13;;;17.87;65.80
51123;BME280;37162;41.724;13.346;2023-03-26T03:17:49;96543.44;;;17.86;65.95
51123;BME280;37162;41.724;13.346;2023-03-26T03:20:16;96547.19;;;17.85;65.35
51123;BME280;37162;41.724;13.346;2023-03-26T03:22:42;96541.00;;;17.84;65.21
51123;BME280;37162;41.724;13.346;2023-03-26T03:25:08;96539.13;;;17.85;65.17
51123;BME280;37162;41.724;13.346;2023-03-26T03:27:39;96538.31;;;17.84;64.85
51123;BME280;37162;41.724;13.346;2023-03-26T03:30:05;96537.25;;;17.85;64.71
51123;BME280;37162;41.724;13.346;2023-03-26T03:32:31;96533.75;;;17.85;64.75
51123;BME280;37162;41.724;13.346;2023-03-26T03:34:56;96535.63;;;17.84;64.68
51123;BME280;37162;41.724;13.346;2023-03-26T03:37:22;96531.00;;;17.80;64.89
51123;BME280;37162;41.724;13.346;2023-03-26T03:39:48;96531.06;;;17.85;64.41
51123;BME280;37162;41.724;13.346;2023-03-26T03:42:14;96537.25;;;17.85;64.60
51123;BME280;37162;41.724;13.346;2023-03-26T03:44:39;96536.44;;;17.85;64.61
51123;BME280;37162;41.724;13.346;2023-03-26T03:47:05;96542.63;;;17.85;64.25
51123;BME280;37162;41.724;13.346;2023-03-26T03:49:31;96533.75;;;17.85;64.36
51123;BME280;37162;41.724;13.346;2023-03-26T03:51:56;96535.63;;;17.84;64.50
51123;BME280;37162;41.724;13.346;2023-03-26T03:54:22;96527.56;;;17.84;64.35
51123;BME280;37162;41.724;13.346;2023-03-26T03:56:48;96527.56;;;17.84;64.33
51123;BME280;37162;41.724;13.346;2023-03-26T03:59:14;96532.69;;;17.86;64.42
51123;BME280;37162;41.724;13.346;2023-03-26T04:01:40;96530.00;;;17.86;65.24
51123;BME280;37162;41.724;13.346;2023-03-26T04:04:08;96536.19;;;17.86;65.34
51123;BME280;37162;41.724;13.346;2023-03-26T04:06:33;96538.88;;;17.86;65.50
51123;BME280;37162;41.724;13.346;2023-03-26T04:08:59;96531.56;;;17.82;65.57
51123;BME280;37162;41.724;13.346;2023-03-26T04:11:24;96540.50;;;17.87;65.46
51123;BME280;37162;41.724;13.346;2023-03-26T04:13:49;96533.50;;;17.86;65.47
51123;BME280;37162;41.724;13.346;2023-03-26T04:16:15;96531.34;;;17.83;65.69
51123;BME280;37162;41.724;13.346;2023-03-26T04:18:42;96537.25;;;17.85;65.17
51123;BME280;37162;41.724;13.346;2023-03-26T04:21:10;96540.94;;;17.79;64.94
51123;BME280;37162;41.724;13.346;2023-03-26T04:23:37;96541.81;;;17.85;65.15
51123;BME280;37162;41.724;13.346;2023-03-26T04:26:05;96544.50;;;17.85;65.05
51123;BME280;37162;41.724;13.346;2023-03-26T04:31:13;96538.31;;;17.84;65.22
51123;BME280;37162;41.724;13.346;2023-03-26T04:33:42;96540.19;;;17.84;65.16
51123;BME280;37162;41.724;13.346;2023-03-26T04:36:11;96543.91;;;17.83;64.96
51123;BME280;37162;41.724;13.346;2023-03-26T04:38:43;96541.50;;;17.81;64.68
51123;BME280;37162;41.724;13.346;2023-03-26T04:41:11;96543.91;;;17.83;64.47
51123;BME280;37162;41.724;13.346;2023-03-26T04:43:36;96505.06;;;17.57;64.51
51123;BME280;37162;41.724;13.346;2023-03-26T04:46:14;96543.63;;;17.79;64.63
51123;BME280;37162;41.724;13.346;2023-03-26T04:48:43;96546.78;;;17.76;64.72
51123;BME280;37162;41.724;13.346;2023-03-26T04:51:09;96555.19;;;17.80;64.35
51123;BME280;37162;41.724;13.346;2023-03-26T04:54:02;96554.38;;;17.79;64.34
51123;BME280;37162;41.724;13.346;2023-03-26T04:56:54;96563.47;;;17.78;64.45
51123;BME280;37162;41.724;13.346;2023-03-26T04:59:34;96563.72;;;17.77;64.50
51123;BME280;37162;41.724;13.346;2023-03-26T05:02:04;96567.22;;;17.77;64.33
51123;BME280;37162;41.724;13.346;2023-03-26T05:04:30;96571.78;;;17.77;64.35
51123;BME280;37162;41.724;13.346;2023-03-26T05:06:58;96566.91;;;17.74;64.26
51123;BME280;37162;41.724;13.346;2023-03-26T05:09:24;96583.13;;;17.79;64.16
51123;BME280;37162;41.724;13.346;2023-03-26T05:11:50;96569.91;;;17.77;64.42
51123;BME280;37162;41.724;13.346;2023-03-26T05:14:16;96574.22;;;17.78;64.35
51123;BME280;37162;41.724;13.346;2023-03-26T05:16:43;96574.72;;;17.75;64.07
51123;BME280;37162;41.724;13.346;2023-03-26T05:19:09;96568.97;;;17.72;64.07
51123;BME280;37162;41.724;13.346;2023-03-26T05:21:34;96577.97;;;17.77;64.08
51123;BME280;37162;41.724;13.346;2023-03-26T05:24:00;96579.84;;;17.77;63.85
51123;BME280;37162;41.724;13.346;2023-03-26T05:26:26;96574.47;;;17.77;64.08
51123;BME280;37162;41.724;13.346;2023-03-26T05:28:54;96580.66;;;17.77;63.96
51123;BME280;37162;41.724;13.346;2023-03-26T05:31:20;96575.53;;;17.76;63.86
51123;BME280;37162;41.724;13.346;2023-03-26T05:33:46;96581.72;;;17.76;63.87
51123;BME280;37162;41.724;13.346;2023-03-26T05:36:12;96584.41;;;17.76;63.98
51123;BME280;37162;41.724;13.346;2023-03-26T05:38:40;96586.28;;;17.76;63.94
51123;BME280;37162;41.724;13.346;2023-03-26T05:41:07;96587.91;;;17.77;64.17
51123;BME280;37162;41.724;13.346;2023-03-26T05:43:33;96579.84;;;17.77;64.12
51123;BME280;37162;41.724;13.346;2023-03-26T05:45:59;96587.91;;;17.77;63.91
51123;BME280;37162;41.724;13.346;2023-03-26T05:48:24;96583.34;;;17.77;64.10
51123;BME280;37162;41.724;13.346;2023-03-26T05:50:52;96587.91;;;17.77;64.26
51123;BME280;37162;41.724;13.346;2023-03-26T05:53:19;96591.41;;;17.77;64.06
51123;BME280;37162;41.724;13.346;2023-03-26T05:55:47;96583.34;;;17.77;64.18
51123;BME280;37162;41.724;13.346;2023-03-26T05:58:31;96582.28;;;17.78;64.22
51123;BME280;37162;41.724;13.346;2023-03-26T06:00:59;96587.66;;;17.78;64.44
51123;BME280;37162;41.724;13.346;2023-03-26T06:03:27;96593.88;;;17.79;64.82
51123;BME280;37162;41.724;13.346;2023-03-26T06:05:52;96593.88;;;17.79;64.68
51123;BME280;37162;41.724;13.346;2023-03-26T06:08:19;96591.66;;;17.76;64.98
51123;BME280;37162;41.724;13.346;2023-03-26T06:10:44;96600.88;;;17.80;64.89
51123;BME280;37162;41.724;13.346;2023-03-26T06:13:10;96600.06;;;17.79;64.53
51123;BME280;37162;41.724;13.346;2023-03-26T06:15:36;96597.38;;;17.79;64.30
51123;BME280;37162;41.724;13.346;2023-03-26T06:18:01;96586.97;;;17.71;64.30
51123;BME280;37162;41.724;13.346;2023-03-26T06:20:27;96605.44;;;17.79;64.13
51123;BME280;37162;41.724;13.346;2023-03-26T06:22:52;96598.41;;;17.78;64.04
51123;BME280;37162;41.724;13.346;2023-03-26T06:25:18;96595.41;;;17.75;64.25
51123;BME280;37162;41.724;13.346;2023-03-26T06:27:44;96605.44;;;17.79;63.94
51123;BME280;37162;41.724;13.346;2023-03-26T06:30:10;96600.28;;;17.78;64.04
51123;BME280;37162;41.724;13.346;2023-03-26T06:32:41;96600.06;;;17.79;64.11
51123;BME280;37162;41.724;13.346;2023-03-26T06:35:07;96604.63;;;17.79;64.11
51123;BME280;37162;41.724;13.346;2023-03-26T06:37:33;96608.13;;;17.79;64.09
51123;BME280;37162;41.724;13.346;2023-03-26T06:39:58;96603.78;;;17.78;64.17
51123;BME280;37162;41.724;13.346;2023-03-26T06:42:24;96602.97;;;17.78;64.16
51123;BME280;37162;41.724;13.346;2023-03-26T06:44:49;96606.47;;;17.78;63.92
51123;BME280;37162;41.724;13.346;2023-03-26T06:47:15;96600.28;;;17.78;63.97
51123;BME280;37162;41.724;13.346;2023-03-26T06:49:40;96591.41;;;17.77;63.84
51123;BME280;37162;41.724;13.346;2023-03-26T06:52:06;96594.09;;;17.77;63.92
51123;BME280;37162;41.724;13.346;2023-03-26T06:54:31;96600.28;;;17.78;64.05
51123;BME280;37162;41.724;13.346;2023-03-26T06:56:57;96607.31;;;17.79;63.85
51123;BME280;37162;41.724;13.346;2023-03-26T06:59:24;96590.72;;;17.70;63.98
51123;BME280;37162;41.724;13.346;2023-03-26T07:01:49;96601.94;;;17.79;64.03
51123;BME280;37162;41.724;13.346;2023-03-26T07:04:15;96611.84;;;17.78;63.84
51123;BME280;37162;41.724;13.346;2023-03-26T07:06:40;96611.84;;;17.78;63.89
51123;BME280;37162;41.724;13.346;2023-03-26T07:09:05;96609.16;;;17.78;63.79
51123;BME280;37162;41.724;13.346;2023-03-26T07:11:31;96593.41;;;17.70;64.02
51123;BME280;37162;41.724;13.346;2023-03-26T07:13:56;96607.53;;;17.77;63.88
51123;BME280;37162;41.724;13.346;2023-03-26T07:16:24;96607.53;;;17.77;63.96
51123;BME280;37162;41.724;13.346;2023-03-26T07:18:49;96600.41;;;17.71;63.96
51123;BME280;37162;41.724;13.346;2023-03-26T07:21:15;96598.53;;;17.72;64.08
51123;BME280;37162;41.724;13.346;2023-03-26T07:23:41;96588.84;;;17.71;64.25
51123;BME280;37162;41.724;13.346;2023-03-26T07:37:04;96598.41;;;17.78;64.12
51123;BME280;37162;41.724;13.346;2023-03-26T07:39:38;96598.41;;;17.78;63.87
51123;BME280;37162;41.724;13.346;2023-03-26T07:45:20;96605.44;;;17.79;64.04
51123;BME280;37162;41.724;13.346;2023-03-26T07:47:48;96610.22;;;17.77;63.29
51123;BME280;37162;41.724;13.346;2023-03-26T07:50:18;96603.69;;;17.73;62.94
51123;BME280;37162;41.724;13.346;2023-03-26T07:52:44;96612.22;;;17.70;62.82
51123;BME280;37162;41.724;13.346;2023-03-26T07:55:14;96607.53;;;17.77;62.94
51123;BME280;37162;41.724;13.346;2023-03-26T07:57:46;96613.47;;;17.79;62.91
51123;BME280;37162;41.724;13.346;2023-03-26T08:00:25;96607.06;;;17.80;63.01
51123;BME280;37162;41.724;13.346;2023-03-26T08:05:49;96611.44;;;17.86;63.30
51123;BME280;37162;41.724;13.346;2023-03-26T08:13:52;96601.59;;;17.92;62.40
51123;BME280;37162;41.724;13.346;2023-03-26T08:16:34;96608.13;;;17.96;62.17
51123;BME280;37162;41.724;13.346;2023-03-26T08:22:28;96604.47;;;18.02;62.34
51123;BME280;37162;41.724;13.346;2023-03-26T08:30:28;96600.63;;;18.15;62.47
51123;BME280;37162;41.724;13.346;2023-03-26T08:33:01;96606.34;;;18.19;62.57
51123;BME280;37162;41.724;13.346;2023-03-26T08:35:28;96608.56;;;18.22;62.59
51123;BME280;37162;41.724;13.346;2023-03-26T08:37:55;96608.03;;;18.25;62.74
51123;BME280;37162;41.724;13.346;2023-03-26T08:48:59;96596.63;;;18.34;62.28
51123;BME280;37162;41.724;13.346;2023-03-26T08:56:50;96587.09;;;18.44;62.48
51123;BME280;37162;41.724;13.346;2023-03-26T08:59:54;96587.41;;;18.47;62.19
51123;BME280;37162;41.724;13.346;2023-03-26T09:34:25;96578.22;;;18.82;62.30
51123;BME280;37162;41.724;13.346;2023-03-26T09:36:55;96582.31;;;18.84;62.23
51123;BME280;37162;41.724;13.346;2023-03-26T09:59:00;96563.97;;;19.03;61.63
51123;BME280;37162;41.724;13.346;2023-03-26T10:10:43;96553.59;;;19.12;61.28
51123;BME280;37162;41.724;13.346;2023-03-26T10:16:01;96543.38;;;19.14;60.29
51123;BME280;37162;41.724;13.346;2023-03-26T10:23:38;96529.72;;;19.21;60.92
51123;BME280;37162;41.724;13.346;2023-03-26T10:26:41;96528.28;;;19.13;61.04
51123;BME280;37162;41.724;13.346;2023-03-26T10:35:05;96521.38;;;19.22;61.22
51123;BME280;37162;41.724;13.346;2023-03-26T10:43:42;96504.72;;;19.25;61.31
51123;BME280;37162;41.724;13.346;2023-03-26T10:52:03;96493.38;;;19.23;61.09
51123;BME280;37162;41.724;13.346;2023-03-26T10:55:08;96502.31;;;19.29;61.20
51123;BME280;37162;41.724;13.346;2023-03-26T11:00:23;96494.81;;;19.31;60.99
51123;BME280;37162;41.724;13.346;2023-03-26T11:09:14;96494.53;;;19.32;61.15
51123;BME280;37162;41.724;13.346;2023-03-26T11:12:00;96494.53;;;19.32;61.24
51123;BME280;37162;41.724;13.346;2023-03-26T11:14:29;96486.22;;;19.34;61.26
51123;BME280;37162;41.724;13.346;2023-03-26T11:19:30;96480.56;;;19.35;61.25
51123;BME280;37162;41.724;13.346;2023-03-26T11:22:16;96478.66;;;19.31;57.69
51123;BME280;37162;41.724;13.346;2023-03-26T11:25:03;96478.94;;;19.34;57.52
51123;BME280;37162;41.724;13.346;2023-03-26T11:32:43;96464.47;;;19.40;60.28
51123;BME280;37162;41.724;13.346;2023-03-26T11:35:18;96460.69;;;19.41;60.38
51123;BME280;37162;41.724;13.346;2023-03-26T11:37:50;96455.28;;;19.41;60.49
51123;BME280;37162;41.724;13.346;2023-03-26T11:40:22;96448.28;;;19.40;60.48
51123;BME280;37162;41.724;13.346;2023-03-26T11:42:53;96446.41;;;19.41;60.58
51123;BME280;37162;41.724;13.346;2023-03-26T11:45:23;96448.28;;;19.40;60.57
51123;BME280;37162;41.724;13.346;2023-03-26T11:47:58;96426.38;;;19.32;60.73
51123;BME280;37162;41.724;13.346;2023-03-26T11:50:30;96442.63;;;19.42;60.63
51123;BME280;37162;41.724;13.346;2023-03-26T11:53:18;96439.13;;;19.41;60.60
51123;BME280;37162;41.724;13.346;2023-03-26T11:55:50;96435.63;;;19.41;60.66
51123;BME280;37162;41.724;13.346;2023-03-26T11:58:28;96426.75;;;19.40;60.77
51123;BME280;37162;41.724;13.346;2023-03-26T12:00:55;96437.50;;;19.40;60.84
51123;BME280;37162;41.724;13.346;2023-03-26T12:03:21;96435.09;;;19.39;60.84
51123;BME280;37162;41.724;13.346;2023-03-26T12:05:51;96427.81;;;19.39;60.84
51123;BME280;37162;41.724;13.346;2023-03-26T12:08:37;96427.25;;;19.37;60.84
51123;BME280;37162;41.724;13.346;2023-03-26T12:11:07;96417.00;;;19.34;60.94
51123;BME280;37162;41.724;13.346;2023-03-26T12:16:15;96404.03;;;19.31;61.01
51123;BME280;37162;41.724;13.346;2023-03-26T12:18:42;96399.16;;;19.28;61.09
51123;BME280;37162;41.724;13.346;2023-03-26T12:21:12;96379.75;;;19.26;61.18
51123;BME280;37162;41.724;13.346;2023-03-26T12:23:57;96383.22;;;19.22;61.06
51123;BME280;37162;41.724;13.346;2023-03-26T12:26:41;96385.38;;;19.20;61.25
51123;BME280;37162;41.724;13.346;2023-03-26T12:29:29;96370.25;;;19.19;61.39
51123;BME280;37162;41.724;13.346;2023-03-26T12:32:13;96365.13;;;19.17;61.33
51123;BME280;37162;41.724;13.346;2023-03-26T12:34:39;96357.81;;;19.12;61.28
51123;BME280;37162;41.724;13.346;2023-03-26T12:37:07;96358.38;;;19.14;61.45
51123;BME280;37162;41.724;13.346;2023-03-26T12:39:41;96351.34;;;19.13;61.25
51123;BME280;37162;41.724;13.346;2023-03-26T12:42:26;96337.34;;;19.11;61.31
51123;BME280;37162;41.724;13.346;2023-03-26T12:44:55;96336.50;;;19.06;61.48
51123;BME280;37162;41.724;13.346;2023-03-26T12:49:50;96329.78;;;19.08;61.52
51123;BME280;37162;41.724;13.346;2023-03-26T13:03:55;96298.47;;;18.97;61.71
51123;BME280;37162;41.724;13.346;2023-03-26T13:06:50;96297.09;;;18.95;61.70
51123;BME280;37162;41.724;13.346;2023-03-26T13:12:18;96297.84;;;18.90;61.73
51123;BME280;37162;41.724;13.346;2023-03-26T13:15:15;96287.63;;;18.87;61.73
51123;BME280;37162;41.724;13.346;2023-03-26T13:28:35;96282.97;;;18.77;61.73
51123;BME280;37162;41.724;13.346;2023-03-26T13:31:16;96262.72;;;18.70;61.66
51123;BME280;37162;41.724;13.346;2023-03-26T13:36:37;96283.97;;;18.71;61.33
51123;BME280;37162;41.724;13.346;2023-03-26T13:44:39;96278.78;;;18.64;60.26
51123;BME280;37162;41.724;13.346;2023-03-26T13:47:14;96273.63;;;18.63;59.78
51123;BME280;37162;41.724;13.346;2023-03-26T13:52:46;96276.84;;;18.60;60.50
51123;BME280;37162;41.724;13.346;2023-03-26T14:00:22;96274.66;;;18.57;61.26
51123;BME280;37162;41.724;13.346;2023-03-26T14:03:06;96271.97;;;18.57;61.74
51123;BME280;37162;41.724;13.346;2023-03-26T14:05:41;96259.84;;;18.54;62.18
51123;BME280;37162;41.724;13.346;2023-03-26T14:08:16;96262.78;;;18.53;62.44
51123;BME280;37162;41.724;13.346;2023-03-26T14:10:48;96261.97;;;18.52;62.80
51123;BME280;37162;41.724;13.346;2023-03-26T14:13:20;96273.00;;;18.51;62.91
51123;BME280;37162;41.724;13.346;2023-03-26T14:15:50;96266.81;;;18.50;62.93
51123;BME280;37162;41.724;13.346;2023-03-26T14:29:52;96256.78;;;18.41;62.64
51123;BME280;37162;41.724;13.346;2023-03-26T14:32:35;96243.31;;;18.41;62.64
51123;BME280;37162;41.724;13.346;2023-03-26T14:35:34;96237.38;;;18.38;62.50
51123;BME280;37162;41.724;13.346;2023-03-26T14:38:23;96232.25;;;18.37;62.56
51123;BME280;37162;41.724;13.346;2023-03-26T14:41:17;96226.88;;;18.37;62.32
51123;BME280;37162;41.724;13.346;2023-03-26T14:51:48;96212.31;;;18.33;62.69
51123;BME280;37162;41.724;13.346;2023-03-26T14:54:22;96208.00;;;18.32;62.79
51123;BME280;37162;41.724;13.346;2023-03-26T15:14:21;96191.56;;;18.28;63.15
51123;BME280;37162;41.724;13.346;2023-03-26T15:49:18;96137.47;;;18.25;63.94
51123;BME280;37162;41.724;13.346;2023-03-26T15:51:57;96130.47;;;18.24;63.93
51123;BME280;37162;41.724;13.346;2023-03-26T15:54:30;96133.16;;;18.24;64.02
51123;BME280;37162;41.724;13.346;2023-03-26T16:02:40;96132.38;;;18.23;64.52
51123;BME280;37162;41.724;13.346;2023-03-26T16:11:11;96119.94;;;18.17;64.31
51123;BME280;37162;41.724;13.346;2023-03-26T16:13:48;96135.56;;;18.20;64.19
51123;BME280;37162;41.724;13.346;2023-03-26T16:16:22;96135.56;;;18.20;64.06
51123;BME280;37162;41.724;13.346;2023-03-26T16:22:05;96129.38;;;18.20;64.07
51123;BME280;37162;41.724;13.346;2023-03-26T16:24:40;96130.97;;;18.21;64.22
51123;BME280;37162;41.724;13.346;2023-03-26T16:30:05;96119.69;;;18.19;64.21
51123;BME280;37162;41.724;13.346;2023-03-26T16:32:35;96114.84;;;18.21;64.20
51123;BME280;37162;41.724;13.346;2023-03-26T16:37:41;96107.06;;;18.19;64.48
51123;BME280;37162;41.724;13.346;2023-03-26T17:01:52;96123.19;;;18.19;65.63
51123;BME280;37162;41.724;13.346;2023-03-26T17:04:26;96124.00;;;18.20;65.35
51123;BME280;37162;41.724;13.346;2023-03-26T17:07:19;96119.69;;;18.19;65.03
51123;BME280;37162;41.724;13.346;2023-03-26T17:15:06;96117.50;;;18.16;64.24
51123;BME280;37162;41.724;13.346;2023-03-26T17:25:34;96101.91;;;18.12;64.30
51123;BME280;37162;41.724;13.346;2023-03-26T17:30:46;96107.50;;;18.11;64.36
51123;BME280;37162;41.724;13.346;2023-03-26T17:33:26;96102.13;;;18.11;64.24
51123;BME280;37162;41.724;13.346;2023-03-26T17:41:06;96094.34;;;18.09;64.37
51123;BME280;37162;41.724;13.346;2023-03-26T17:46:04;96092.22;;;18.11;64.56
51123;BME280;37162;41.724;13.346;2023-03-26T17:48:38;96093.25;;;18.10;64.74
51123;BME280;37162;41.724;13.346;2023-03-26T17:53:40;96080.59;;;18.06;64.98
51123;BME280;37162;41.724;13.346;2023-03-26T17:56:13;96082.75;;;18.04;65.04
51123;BME280;37162;41.724;13.346;2023-03-26T17:58:45;96089.78;;;18.10;64.98
51123;BME280;37162;41.724;13.346;2023-03-26T18:01:26;96097.03;;;18.09;64.91
51123;BME280;37162;41.724;13.346;2023-03-26T18:03:56;96105.34;;;18.08;64.58
51123;BME280;37162;41.724;13.346;2023-03-26T18:12:04;96106.97;;;18.09;64.09
51123;BME280;37162;41.724;13.346;2023-03-26T18:14:56;96105.91;;;18.10;64.37
51123;BME280;37162;41.724;13.346;2023-03-26T18:17:20;96103.22;;;18.10;64.39
51123;BME280;37162;41.724;13.346;2023-03-26T18:19:48;96114.53;;;18.12;64.81
51123;BME280;37162;41.724;13.346;2023-03-26T18:22:22;96115.56;;;18.11;64.67
51123;BME280;37162;41.724;13.346;2023-03-26T18:24:49;96107.50;;;18.11;64.87
51123;BME280;37162;41.724;13.346;2023-03-26T18:27:18;96097.59;;;18.11;64.75
51123;BME280;37162;41.724;13.346;2023-03-26T18:29:58;96096.75;;;18.11;64.77
51123;BME280;37162;41.724;13.346;2023-03-26T18:32:28;96094.91;;;18.11;64.94
51123;BME280;37162;41.724;13.346;2023-03-26T18:35:19;96095.72;;;18.12;65.29
51123;BME280;37162;41.724;13.346;2023-03-26T18:37:47;96087.66;;;18.12;65.34
51123;BME280;37162;41.724;13.346;2023-03-26T18:40:19;96083.09;;;18.12;65.45
51123;BME280;37162;41.724;13.346;2023-03-26T18:42:56;96083.88;;;18.13;65.44
51123;BME280;37162;41.724;13.346;2023-03-26T18:45:31;96073.41;;;18.11;65.51
51123;BME280;37162;41.724;13.346;2023-03-26T18:48:04;96065.84;;;18.08;65.57
51123;BME280;37162;41.724;13.346;2023-03-26T18:50:37;96075.81;;;18.13;65.58
51123;BME280;37162;41.724;13.346;2023-03-26T18:53:18;96073.41;;;18.11;65.65
51123;BME280;37162;41.724;13.346;2023-03-26T18:55:46;96071.25;;;18.13;65.62
51123;BME280;37162;41.724;13.346;2023-03-26T19:00:51;96050.75;;;18.02;65.43
51123;BME280;37162;41.724;13.346;2023-03-26T19:03:22;96065.06;;;18.13;65.47